createdAt,value
2017-10-10T00:00:36.196Z,1007.85
2017-10-10T00:01:16.632Z,1007.85
2017-10-10T00:01:57.131Z,1007.82
2017-10-10T00:02:37.573Z,1007.84
2017-10-10T00:03:18.004Z,1007.79
2017-10-10T00:03:58.522Z,1007.76
2017-10-10T00:04:38.987Z,1007.8
2017-10-10T00:05:19.484Z,1007.78
2017-10-10T00:05:59.954Z,1007.79
2017-10-10T00:06:40.552Z,1007.78
2017-10-10T00:07:21.012Z,1007.83
2017-10-10T00:08:01.479Z,1007.82
2017-10-10T00:08:42.058Z,1007.79
2017-10-10T00:09:22.551Z,1007.8
2017-10-10T00:10:03.049Z,1007.79
2017-10-10T00:10:43.590Z,1007.76
2017-10-10T00:11:24.037Z,1007.78
2017-10-10T00:12:04.678Z,1007.77
2017-10-10T00:12:45.118Z,1007.74
2017-10-10T00:13:25.606Z,1007.77
2017-10-10T00:14:06.116Z,1007.74
2017-10-10T00:14:46.595Z,1007.76
2017-10-10T00:15:27.033Z,1007.73
2017-10-10T00:16:07.557Z,1007.76
2017-10-10T00:16:47.973Z,1007.78
2017-10-10T00:17:28.395Z,1007.73
2017-10-10T00:18:08.879Z,1007.72
2017-10-10T00:18:49.353Z,1007.73
2017-10-10T00:19:29.797Z,1007.77
2017-10-10T00:20:10.271Z,1007.74
2017-10-10T00:20:50.740Z,1007.76
2017-10-10T00:21:31.229Z,1007.77
2017-10-10T00:22:11.666Z,1007.73
2017-10-10T00:22:52.142Z,1007.74
2017-10-10T00:23:32.541Z,1007.74
2017-10-10T00:24:12.981Z,1007.74
2017-10-10T00:24:53.428Z,1007.76
2017-10-10T00:25:33.894Z,1007.74
2017-10-10T00:26:14.372Z,1007.74
2017-10-10T00:26:54.812Z,1007.73
2017-10-10T00:27:35.246Z,1007.7
2017-10-10T00:28:15.818Z,1007.66
2017-10-10T00:28:56.246Z,1007.69
2017-10-10T00:29:36.674Z,1007.62
2017-10-10T00:30:17.118Z,1007.69
2017-10-10T00:30:57.622Z,1007.66
2017-10-10T00:31:38.048Z,1007.66
2017-10-10T00:32:18.475Z,1007.69
2017-10-10T00:32:58.936Z,1007.64
2017-10-10T00:33:39.434Z,1007.68
2017-10-10T00:34:19.891Z,1007.68
2017-10-10T00:35:00.412Z,1007.66
2017-10-10T00:35:40.802Z,1007.67
2017-10-10T00:36:21.307Z,1007.7
2017-10-10T00:37:01.747Z,1007.66
2017-10-10T00:37:42.197Z,1007.65
2017-10-10T00:38:22.611Z,1007.68
2017-10-10T00:39:03.084Z,1007.67
2017-10-10T00:39:43.576Z,1007.68
2017-10-10T00:40:24.051Z,1007.67
2017-10-10T00:41:04.453Z,1007.69
2017-10-10T00:41:44.907Z,1007.7
2017-10-10T00:42:25.377Z,1007.67
2017-10-10T00:43:05.809Z,1007.67
2017-10-10T00:43:46.288Z,1007.62
2017-10-10T00:44:26.825Z,1007.64
2017-10-10T00:45:07.329Z,1007.6
2017-10-10T00:45:47.732Z,1007.62
2017-10-10T00:46:28.185Z,1007.63
2017-10-10T00:47:08.664Z,1007.61
2017-10-10T00:47:49.132Z,1007.63
2017-10-10T00:48:29.595Z,1007.62
2017-10-10T00:49:10.104Z,1007.61
2017-10-10T00:49:50.615Z,1007.56
2017-10-10T00:50:31.068Z,1007.6
2017-10-10T00:51:11.522Z,1007.57
2017-10-10T00:51:51.986Z,1007.57
2017-10-10T00:52:32.447Z,1007.59
2017-10-10T00:53:12.924Z,1007.58
2017-10-10T00:53:53.410Z,1007.59
2017-10-10T00:54:33.851Z,1007.55
2017-10-10T00:55:14.324Z,1007.58
2017-10-10T00:55:54.775Z,1007.59
2017-10-10T00:56:35.280Z,1007.61
2017-10-10T00:57:15.762Z,1007.64
2017-10-10T00:57:56.174Z,1007.63
2017-10-10T00:58:36.928Z,1007.59
2017-10-10T00:59:17.144Z,1007.62
2017-10-10T00:59:57.594Z,1007.61
2017-10-10T01:00:38.071Z,1007.6
2017-10-10T01:01:18.564Z,1007.6
2017-10-10T01:01:59.026Z,1007.58
2017-10-10T01:02:39.481Z,1007.56
2017-10-10T01:03:19.889Z,1007.59
2017-10-10T01:04:00.387Z,1007.61
2017-10-10T01:04:40.829Z,1007.61
2017-10-10T01:05:21.316Z,1007.58
2017-10-10T01:06:01.773Z,1007.54
2017-10-10T01:06:42.354Z,1007.59
2017-10-10T01:07:22.813Z,1007.57
2017-10-10T01:08:03.383Z,1007.57
2017-10-10T01:08:43.880Z,1007.53
2017-10-10T01:09:24.380Z,1007.55
2017-10-10T01:10:04.834Z,1007.48
2017-10-10T01:12:22.867Z,1007.51
2017-10-10T01:13:03.292Z,1007.48
2017-10-10T01:13:43.786Z,1007.52
2017-10-10T01:14:24.198Z,1007.5
2017-10-10T01:15:04.657Z,1007.51
2017-10-10T01:15:45.104Z,1007.49
2017-10-10T01:16:25.583Z,1007.51
2017-10-10T01:17:06.336Z,1007.52
2017-10-10T01:17:46.552Z,1007.5
2017-10-10T01:18:26.966Z,1007.51
2017-10-10T01:19:07.370Z,1007.53
2017-10-10T01:19:47.896Z,1007.53
2017-10-10T01:20:28.325Z,1007.59
2017-10-10T01:21:08.761Z,1007.55
2017-10-10T01:21:49.261Z,1007.58
2017-10-10T01:22:29.717Z,1007.57
2017-10-10T01:23:10.137Z,1007.59
2017-10-10T01:23:50.666Z,1007.64
2017-10-10T01:24:31.064Z,1007.61
2017-10-10T01:25:11.552Z,1007.66
2017-10-10T01:25:52.118Z,1007.57
2017-10-10T01:26:32.567Z,1007.59
2017-10-10T01:27:13.007Z,1007.61
2017-10-10T01:27:53.566Z,1007.61
2017-10-10T01:28:33.993Z,1007.56
2017-10-10T01:29:14.459Z,1007.61
2017-10-10T01:29:54.914Z,1007.65
2017-10-10T01:30:35.391Z,1007.66
2017-10-10T01:31:15.859Z,1007.63
2017-10-10T01:31:56.237Z,1007.62
2017-10-10T01:32:36.764Z,1007.59
2017-10-10T01:33:17.208Z,1007.65
2017-10-10T01:33:57.687Z,1007.63
2017-10-10T01:34:38.148Z,1007.56
2017-10-10T01:35:18.611Z,1007.58
2017-10-10T01:35:59.139Z,1007.56
2017-10-10T01:36:39.574Z,1007.56
2017-10-10T01:37:20.042Z,1007.53
2017-10-10T01:38:00.428Z,1007.56
2017-10-10T01:38:40.902Z,1007.52
2017-10-10T01:39:21.465Z,1007.54
2017-10-10T01:40:01.928Z,1007.52
2017-10-10T01:40:42.429Z,1007.51
2017-10-10T01:41:22.854Z,1007.52
2017-10-10T01:42:03.386Z,1007.59
2017-10-10T01:42:43.941Z,1007.54
2017-10-10T01:43:24.422Z,1007.52
2017-10-10T01:44:04.902Z,1007.51
2017-10-10T01:44:45.316Z,1007.48
2017-10-10T01:45:25.783Z,1007.5
2017-10-10T01:46:06.424Z,1007.49
2017-10-10T01:46:46.943Z,1007.47
2017-10-10T01:47:27.360Z,1007.46
2017-10-10T01:48:07.818Z,1007.46
2017-10-10T01:48:48.319Z,1007.5
2017-10-10T01:49:28.728Z,1007.49
2017-10-10T01:50:09.321Z,1007.44
2017-10-10T01:50:49.759Z,1007.47
2017-10-10T01:51:30.239Z,1007.5
2017-10-10T01:52:10.724Z,1007.47
2017-10-10T01:52:51.135Z,1007.47
2017-10-10T01:53:31.587Z,1007.47
2017-10-10T01:54:12.028Z,1007.45
2017-10-10T01:54:52.526Z,1007.48
2017-10-10T01:55:32.953Z,1007.48
2017-10-10T01:56:13.470Z,1007.52
2017-10-10T01:56:53.876Z,1007.51
2017-10-10T01:57:34.325Z,1007.49
2017-10-10T01:58:14.771Z,1007.49
2017-10-10T01:58:55.220Z,1007.47
2017-10-10T01:59:35.671Z,1007.48
2017-10-10T02:00:16.168Z,1007.47
2017-10-10T02:00:56.727Z,1007.45
2017-10-10T02:01:37.122Z,1007.44
2017-10-10T02:02:17.620Z,1007.42
2017-10-10T02:02:58.127Z,1007.44
2017-10-10T02:03:38.553Z,1007.39
2017-10-10T02:04:19.080Z,1007.39
2017-10-10T02:04:59.529Z,1007.37
2017-10-10T02:05:39.976Z,1007.36
2017-10-10T02:06:20.535Z,1007.38
2017-10-10T02:07:00.900Z,1007.31
2017-10-10T02:07:41.358Z,1007.38
2017-10-10T02:08:21.874Z,1007.36
2017-10-10T02:09:02.340Z,1007.35
2017-10-10T02:09:42.813Z,1007.28
2017-10-10T02:10:23.242Z,1007.33
2017-10-10T02:11:03.722Z,1007.36
2017-10-10T02:11:44.285Z,1007.31
2017-10-10T02:12:24.687Z,1007.38
2017-10-10T02:13:05.120Z,1007.37
2017-10-10T02:13:45.617Z,1007.37
2017-10-10T02:14:26.067Z,1007.36
2017-10-10T02:15:06.513Z,1007.33
2017-10-10T02:15:46.910Z,1007.36
2017-10-10T02:16:27.385Z,1007.32
2017-10-10T02:17:07.937Z,1007.34
2017-10-10T02:17:48.374Z,1007.33
2017-10-10T02:18:28.868Z,1007.35
2017-10-10T02:19:09.366Z,1007.35
2017-10-10T02:19:49.829Z,1007.36
2017-10-10T02:20:30.268Z,1007.37
2017-10-10T02:21:10.728Z,1007.36
2017-10-10T02:21:51.265Z,1007.34
2017-10-10T02:22:31.670Z,1007.36
2017-10-10T02:23:12.133Z,1007.35
2017-10-10T02:23:52.584Z,1007.32
2017-10-10T02:24:33.045Z,1007.34
2017-10-10T02:25:13.502Z,1007.33
2017-10-10T02:25:53.983Z,1007.35
2017-10-10T02:26:34.611Z,1007.38
2017-10-10T02:27:14.950Z,1007.37
2017-10-10T02:27:55.526Z,1007.33
2017-10-10T02:28:35.991Z,1007.35
2017-10-10T02:29:16.463Z,1007.34
2017-10-10T02:29:57.045Z,1007.32
2017-10-10T02:30:37.489Z,1007.34
2017-10-10T02:31:17.960Z,1007.32
2017-10-10T02:31:58.401Z,1007.36
2017-10-10T02:32:38.899Z,1007.35
2017-10-10T02:33:19.354Z,1007.32
2017-10-10T02:33:59.786Z,1007.35
2017-10-10T02:34:40.269Z,1007.31
2017-10-10T02:35:20.725Z,1007.32
2017-10-10T02:36:01.174Z,1007.33
2017-10-10T02:36:41.729Z,1007.29
2017-10-10T02:37:22.274Z,1007.29
2017-10-10T02:38:02.764Z,1007.29
2017-10-10T02:38:43.180Z,1007.27
2017-10-10T02:39:23.703Z,1007.27
2017-10-10T02:40:04.113Z,1007.25
2017-10-10T02:40:44.629Z,1007.27
2017-10-10T02:41:25.054Z,1007.26
2017-10-10T02:42:05.509Z,1007.28
2017-10-10T02:42:45.955Z,1007.24
2017-10-10T02:43:26.410Z,1007.28
2017-10-10T02:44:06.886Z,1007.24
2017-10-10T02:44:47.633Z,1007.23
2017-10-10T02:45:28.119Z,1007.24
2017-10-10T02:46:08.523Z,1007.22
2017-10-10T02:46:49.132Z,1007.19
2017-10-10T02:47:29.617Z,1007.2
2017-10-10T02:48:10.033Z,1007.2
2017-10-10T02:48:50.480Z,1007.09
2017-10-10T02:49:30.937Z,1007.11
2017-10-10T02:50:11.392Z,1007.04
2017-10-10T02:50:51.855Z,1007.05
2017-10-10T02:51:32.327Z,1007.05
2017-10-10T02:52:12.823Z,1007.05
2017-10-10T02:52:53.388Z,1007.02
2017-10-10T02:53:33.859Z,1007.04
2017-10-10T02:54:14.302Z,1007.02
2017-10-10T02:54:54.737Z,1007.05
2017-10-10T02:55:35.200Z,1007.04
2017-10-10T02:56:15.653Z,1007.04
2017-10-10T02:56:56.099Z,1007.04
2017-10-10T02:57:36.637Z,1007.04
2017-10-10T02:58:17.088Z,1007.05
2017-10-10T02:58:57.549Z,1007.04
2017-10-10T02:59:38.043Z,1007.02
2017-10-10T03:00:18.529Z,1007.01
2017-10-10T03:00:59.066Z,1006.97
2017-10-10T03:01:39.565Z,1007
2017-10-10T03:02:20.013Z,1006.99
2017-10-10T03:03:00.473Z,1006.95
2017-10-10T03:03:40.907Z,1007.01
2017-10-10T03:04:21.354Z,1007.03
2017-10-10T03:05:01.808Z,1006.99
2017-10-10T03:05:42.242Z,1007.01
2017-10-10T03:06:22.756Z,1006.99
2017-10-10T03:07:03.296Z,1007.04
2017-10-10T03:07:43.758Z,1007.03
2017-10-10T03:08:24.285Z,1007.03
2017-10-10T03:09:04.768Z,1007.03
2017-10-10T03:09:45.236Z,1006.97
2017-10-10T03:10:25.755Z,1006.97
2017-10-10T03:11:06.380Z,1006.99
2017-10-10T03:11:46.682Z,1006.91
2017-10-10T03:12:27.180Z,1006.93
2017-10-10T03:13:07.648Z,1006.92
2017-10-10T03:13:48.067Z,1006.99
2017-10-10T03:14:28.520Z,1006.93
2017-10-10T03:15:09.053Z,1006.94
2017-10-10T03:15:49.527Z,1006.96
2017-10-10T03:16:29.988Z,1006.93
2017-10-10T03:18:48.425Z,1006.92
2017-10-10T03:19:28.833Z,1006.89
2017-10-10T03:20:09.288Z,1006.9
2017-10-10T03:20:49.724Z,1006.9
2017-10-10T03:21:30.139Z,1006.91
2017-10-10T03:22:10.665Z,1006.88
2017-10-10T03:22:51.100Z,1006.89
2017-10-10T03:23:31.493Z,1006.87
2017-10-10T03:24:11.969Z,1006.88
2017-10-10T03:24:52.468Z,1006.89
2017-10-10T03:25:32.945Z,1006.93
2017-10-10T03:26:13.482Z,1006.92
2017-10-10T03:26:53.853Z,1006.94
2017-10-10T03:27:34.358Z,1006.92
2017-10-10T03:28:14.817Z,1006.92
2017-10-10T03:28:55.323Z,1006.89
2017-10-10T03:29:35.808Z,1006.91
2017-10-10T03:30:16.284Z,1006.89
2017-10-10T03:30:56.710Z,1006.94
2017-10-10T03:31:37.151Z,1006.95
2017-10-10T03:32:17.877Z,1006.9
2017-10-10T03:32:58.354Z,1006.93
2017-10-10T03:33:38.808Z,1006.91
2017-10-10T03:34:19.332Z,1006.92
2017-10-10T03:34:59.818Z,1006.92
2017-10-10T03:35:40.288Z,1006.9
2017-10-10T03:36:20.759Z,1006.92
2017-10-10T03:37:01.243Z,1006.89
2017-10-10T03:37:41.713Z,1006.93
2017-10-10T03:38:22.170Z,1006.94
2017-10-10T03:39:02.758Z,1006.95
2017-10-10T03:39:43.185Z,1006.92
2017-10-10T03:40:23.735Z,1006.94
2017-10-10T03:41:04.159Z,1006.92
2017-10-10T03:41:44.613Z,1006.93
2017-10-10T03:42:25.065Z,1006.93
2017-10-10T03:43:05.535Z,1006.9
2017-10-10T03:43:46.036Z,1006.89
2017-10-10T03:44:26.455Z,1006.91
2017-10-10T03:45:06.918Z,1006.91
2017-10-10T03:45:47.354Z,1006.87
2017-10-10T03:46:27.827Z,1006.87
2017-10-10T03:47:08.270Z,1006.89
2017-10-10T03:47:48.720Z,1006.85
2017-10-10T03:48:29.210Z,1006.84
2017-10-10T03:49:09.643Z,1006.84
2017-10-10T03:49:50.098Z,1006.92
2017-10-10T03:50:30.572Z,1006.86
2017-10-10T03:51:11.092Z,1006.86
2017-10-10T03:51:51.525Z,1006.92
2017-10-10T03:52:31.970Z,1006.91
2017-10-10T03:53:12.470Z,1006.84
2017-10-10T03:53:52.953Z,1006.88
2017-10-10T03:54:33.376Z,1006.88
2017-10-10T03:55:13.842Z,1006.91
2017-10-10T03:55:54.342Z,1006.89
2017-10-10T03:56:34.761Z,1006.89
2017-10-10T03:57:15.480Z,1006.86
2017-10-10T03:57:55.756Z,1006.86
2017-10-10T03:58:36.225Z,1006.93
2017-10-10T03:59:16.681Z,1006.85
2017-10-10T03:59:57.126Z,1006.88
2017-10-10T04:00:37.653Z,1006.93
2017-10-10T04:01:18.104Z,1006.82
2017-10-10T04:01:58.524Z,1006.86
2017-10-10T04:02:38.967Z,1006.79
2017-10-10T04:03:19.438Z,1006.83
2017-10-10T04:04:00.084Z,1006.85
2017-10-10T04:04:40.359Z,1006.88
2017-10-10T04:05:20.792Z,1006.87
2017-10-10T04:06:01.244Z,1006.92
2017-10-10T04:06:41.759Z,1006.89
2017-10-10T04:07:22.195Z,1006.88
2017-10-10T04:08:02.635Z,1006.87
2017-10-10T04:08:43.104Z,1006.88
2017-10-10T04:09:23.572Z,1006.86
2017-10-10T04:10:04.010Z,1006.91
2017-10-10T04:10:44.459Z,1006.91
2017-10-10T04:11:24.925Z,1006.89
2017-10-10T04:12:05.371Z,1006.88
2017-10-10T04:12:45.845Z,1006.88
2017-10-10T04:13:26.294Z,1006.9
2017-10-10T04:14:06.770Z,1006.91
2017-10-10T04:14:47.214Z,1006.94
2017-10-10T04:15:27.686Z,1006.9
2017-10-10T04:16:08.108Z,1006.91
2017-10-10T04:16:48.565Z,1006.92
2017-10-10T04:17:29.031Z,1006.89
2017-10-10T04:18:09.511Z,1006.92
2017-10-10T04:18:49.958Z,1006.86
2017-10-10T04:19:30.405Z,1006.91
2017-10-10T04:20:10.900Z,1006.89
2017-10-10T04:20:51.332Z,1006.94
2017-10-10T04:21:31.908Z,1006.92
2017-10-10T04:22:12.273Z,1006.92
2017-10-10T04:22:52.797Z,1006.91
2017-10-10T04:23:33.238Z,1006.91
2017-10-10T04:25:31.514Z,1006.94
2017-10-10T04:26:11.898Z,1006.96
2017-10-10T04:26:52.354Z,1006.94
2017-10-10T04:27:32.867Z,1006.95
2017-10-10T04:28:13.406Z,1006.93
2017-10-10T04:28:53.812Z,1006.93
2017-10-10T04:29:34.256Z,1006.95
2017-10-10T04:30:14.706Z,1006.92
2017-10-10T04:30:55.128Z,1006.9
2017-10-10T04:31:35.578Z,1006.88
2017-10-10T04:32:16.907Z,1006.88
2017-10-10T04:32:57.508Z,1006.91
2017-10-10T04:33:38.158Z,1006.91
2017-10-10T04:34:18.575Z,1006.93
2017-10-10T04:34:59.020Z,1006.92
2017-10-10T04:35:39.472Z,1006.93
2017-10-10T04:36:19.918Z,1006.93
2017-10-10T04:37:00.364Z,1006.94
2017-10-10T04:37:40.815Z,1006.91
2017-10-10T04:38:21.313Z,1006.93
2017-10-10T04:39:01.759Z,1006.93
2017-10-10T04:39:42.283Z,1006.91
2017-10-10T04:40:22.733Z,1006.9
2017-10-10T04:41:03.150Z,1006.89
2017-10-10T04:41:43.742Z,1006.94
2017-10-10T04:42:24.199Z,1006.91
2017-10-10T04:43:04.613Z,1006.9
2017-10-10T04:43:45.146Z,1006.9
2017-10-10T04:44:25.585Z,1006.94
2017-10-10T04:45:06.088Z,1006.92
2017-10-10T04:45:46.549Z,1006.89
2017-10-10T04:46:27.017Z,1006.92
2017-10-10T04:47:07.444Z,1006.92
2017-10-10T04:47:47.869Z,1006.93
2017-10-10T04:48:28.332Z,1006.93
2017-10-10T04:49:08.860Z,1006.95
2017-10-10T04:49:49.312Z,1006.93
2017-10-10T04:50:29.801Z,1006.95
2017-10-10T04:51:10.260Z,1006.95
2017-10-10T04:51:50.768Z,1006.93
2017-10-10T04:52:31.335Z,1006.9
2017-10-10T04:53:11.883Z,1006.9
2017-10-10T04:53:52.326Z,1006.94
2017-10-10T04:54:32.723Z,1006.96
2017-10-10T04:55:13.147Z,1006.94
2017-10-10T04:55:53.631Z,1006.99
2017-10-10T04:56:34.071Z,1006.97
2017-10-10T04:57:14.725Z,1007.05
2017-10-10T04:57:55.204Z,1007.02
2017-10-10T04:58:35.654Z,1007
2017-10-10T04:59:16.138Z,1007.01
2017-10-10T04:59:56.570Z,1007.01
2017-10-10T05:00:37.100Z,1007.03
2017-10-10T05:01:17.531Z,1007.01
2017-10-10T05:01:58.020Z,1006.99
2017-10-10T05:02:38.540Z,1007
2017-10-10T05:03:19.010Z,1006.96
2017-10-10T05:03:59.439Z,1007.03
2017-10-10T05:04:39.895Z,1006.95
2017-10-10T05:05:20.343Z,1007.02
2017-10-10T05:06:00.790Z,1007.03
2017-10-10T05:06:41.297Z,1007.04
2017-10-10T05:07:21.739Z,1006.95
2017-10-10T05:08:02.275Z,1007.03
2017-10-10T05:08:42.742Z,1007.01
2017-10-10T05:09:23.210Z,1006.96
2017-10-10T05:10:03.638Z,1006.99
2017-10-10T05:10:44.124Z,1006.96
2017-10-10T05:11:24.584Z,1007.03
2017-10-10T05:12:05.006Z,1006.94
2017-10-10T05:12:45.571Z,1006.93
2017-10-10T05:13:26.029Z,1006.96
2017-10-10T05:14:06.591Z,1006.95
2017-10-10T05:14:47.104Z,1006.9
2017-10-10T05:15:27.584Z,1006.89
2017-10-10T05:16:08.034Z,1006.93
2017-10-10T05:16:48.502Z,1006.92
2017-10-10T05:17:28.978Z,1006.94
2017-10-10T05:18:09.455Z,1006.99
2017-10-10T05:18:49.907Z,1006.96
2017-10-10T05:19:30.747Z,1006.96
2017-10-10T05:20:11.211Z,1006.93
2017-10-10T05:20:51.713Z,1006.94
2017-10-10T05:21:32.214Z,1006.92
2017-10-10T05:22:12.734Z,1006.94
2017-10-10T05:22:53.321Z,1006.94
2017-10-10T05:23:33.749Z,1006.91
2017-10-10T05:24:14.198Z,1006.92
2017-10-10T05:24:54.796Z,1006.92
2017-10-10T05:25:35.237Z,1006.95
2017-10-10T05:27:48.347Z,1006.97
2017-10-10T05:28:28.792Z,1006.92
2017-10-10T05:29:09.207Z,1006.96
2017-10-10T05:29:49.706Z,1007.03
2017-10-10T05:30:30.095Z,1007
2017-10-10T05:31:10.563Z,1007
2017-10-10T05:31:51.037Z,1007
2017-10-10T05:32:31.567Z,1007.02
2017-10-10T05:33:12.051Z,1007.02
2017-10-10T05:33:52.490Z,1007.04
2017-10-10T05:34:32.942Z,1007.05
2017-10-10T05:35:13.551Z,1007.07
2017-10-10T05:35:54.170Z,1007.05
2017-10-10T05:36:34.797Z,1007.06
2017-10-10T05:37:15.487Z,1007.04
2017-10-10T05:37:56.066Z,1007.05
2017-10-10T05:38:36.699Z,1007.08
2017-10-10T05:39:18.218Z,1007.06
2017-10-10T05:39:58.978Z,1007.06
2017-10-10T05:40:39.643Z,1007.03
2017-10-10T05:41:20.365Z,1007.05
2017-10-10T05:42:00.999Z,1007.06
2017-10-10T05:42:41.646Z,1007.05
2017-10-10T05:43:22.222Z,1007.08
2017-10-10T05:44:03.043Z,1007.02
2017-10-10T05:44:43.795Z,1007.01
2017-10-10T05:45:24.411Z,1007.06
2017-10-10T05:46:05.104Z,1007.03
2017-10-10T05:46:45.767Z,1007.02
2017-10-10T05:47:26.379Z,1007.06
2017-10-10T05:48:06.931Z,1007.1
2017-10-10T05:48:47.602Z,1007.04
2017-10-10T05:49:28.288Z,1007.07
2017-10-10T05:50:08.904Z,1007.1
2017-10-10T05:50:49.591Z,1007.08
2017-10-10T05:51:30.311Z,1007.05
2017-10-10T05:52:11.087Z,1007.05
2017-10-10T05:52:51.685Z,1007.09
2017-10-10T05:53:32.328Z,1007.09
2017-10-10T05:54:12.969Z,1007.06
2017-10-10T05:54:53.558Z,1007.1
2017-10-10T05:55:34.179Z,1007.09
2017-10-10T05:56:14.813Z,1007.06
2017-10-10T05:56:55.457Z,1007.09
2017-10-10T05:57:36.097Z,1007.1
2017-10-10T05:58:16.720Z,1007.06
2017-10-10T05:58:57.677Z,1007.07
2017-10-10T05:59:38.304Z,1007.07
2017-10-10T06:00:18.876Z,1007.03
2017-10-10T06:00:59.502Z,1007.04
2017-10-10T06:01:40.073Z,1007.06
2017-10-10T06:02:20.565Z,1007.03
2017-10-10T06:03:01.071Z,1007.04
2017-10-10T06:03:41.606Z,1007.05
2017-10-10T06:04:22.204Z,1007.08
2017-10-10T06:05:02.769Z,1007.1
2017-10-10T06:05:43.336Z,1007.1
2017-10-10T06:06:23.984Z,1007.09
2017-10-10T06:07:04.609Z,1007.11
2017-10-10T06:07:45.217Z,1007.1
2017-10-10T06:08:25.846Z,1007.12
2017-10-10T06:09:06.471Z,1007.14
2017-10-10T06:09:46.983Z,1007.13
2017-10-10T06:10:27.522Z,1007.16
2017-10-10T06:11:08.160Z,1007.15
2017-10-10T06:11:48.975Z,1007.15
2017-10-10T06:12:29.562Z,1007.14
2017-10-10T06:13:10.106Z,1007.13
2017-10-10T06:13:50.697Z,1007.06
2017-10-10T06:14:31.204Z,1007.07
2017-10-10T06:15:12.612Z,1007.09
2017-10-10T06:15:53.187Z,1007.06
2017-10-10T06:16:33.846Z,1007.07
2017-10-10T06:17:14.381Z,1007.05
2017-10-10T06:17:54.868Z,1007.06
2017-10-10T06:18:35.406Z,1007.06
2017-10-10T06:19:15.872Z,1007.05
2017-10-10T06:19:56.467Z,1007.01
2017-10-10T06:20:37.009Z,1007.05
2017-10-10T06:21:17.569Z,1007
2017-10-10T06:21:58.220Z,1007.07
2017-10-10T06:22:38.801Z,1007.02
2017-10-10T06:23:19.469Z,1007.04
2017-10-10T06:24:00.104Z,1007.09
2017-10-10T06:24:40.630Z,1007.07
2017-10-10T06:25:21.186Z,1006.97
2017-10-10T06:26:02.230Z,1007.03
2017-10-10T06:26:42.865Z,1007
2017-10-10T06:27:23.489Z,1007.07
2017-10-10T06:28:04.098Z,1007.02
2017-10-10T06:28:44.792Z,1007.04
2017-10-10T06:29:25.326Z,1007.04
2017-10-10T06:30:06.120Z,1007.05
2017-10-10T06:30:46.519Z,1007.05
2017-10-10T06:31:27.183Z,1007
2017-10-10T06:32:07.777Z,1007.04
2017-10-10T06:32:48.393Z,1007.06
2017-10-10T06:33:29.014Z,1007.05
2017-10-10T06:34:09.670Z,1007.07
2017-10-10T06:34:50.293Z,1007.07
2017-10-10T06:35:30.941Z,1007.09
2017-10-10T06:36:11.531Z,1007.09
2017-10-10T06:36:52.215Z,1007.11
2017-10-10T06:37:32.855Z,1007.08
2017-10-10T06:38:13.456Z,1007.08
2017-10-10T06:38:54.103Z,1007.09
2017-10-10T06:39:34.778Z,1007.07
2017-10-10T06:40:15.417Z,1007.09
2017-10-10T06:40:56.086Z,1007.09
2017-10-10T06:41:36.738Z,1007.07
2017-10-10T06:42:17.446Z,1007.06
2017-10-10T06:42:58.084Z,1007.07
2017-10-10T06:43:38.706Z,1007.06
2017-10-10T06:44:19.312Z,1007.03
2017-10-10T06:44:59.935Z,1007.11
2017-10-10T06:45:40.656Z,1007.12
2017-10-10T06:46:21.295Z,1007.09
2017-10-10T06:47:01.956Z,1007.13
2017-10-10T06:47:42.519Z,1007.17
2017-10-10T06:48:23.170Z,1007.13
2017-10-10T06:49:03.829Z,1007.15
2017-10-10T06:49:44.527Z,1007.14
2017-10-10T06:50:25.100Z,1007.16
2017-10-10T06:51:05.804Z,1007.21
2017-10-10T06:51:46.436Z,1007.21
2017-10-10T06:52:27.095Z,1007.24
2017-10-10T06:53:08.052Z,1007.25
2017-10-10T06:53:48.798Z,1007.26
2017-10-10T06:54:29.430Z,1007.31
2017-10-10T06:58:19.716Z,1007.24
2017-10-10T06:59:05.674Z,1007.22
2017-10-10T06:59:49.940Z,1007.23
2017-10-10T07:00:31.607Z,1007.21
2017-10-10T07:01:12.215Z,1007.24
2017-10-10T07:01:52.819Z,1007.21
2017-10-10T07:02:33.463Z,1007.27
2017-10-10T07:03:14.104Z,1007.28
2017-10-10T07:03:54.747Z,1007.24
2017-10-10T07:04:35.501Z,1007.26
2017-10-10T07:05:16.156Z,1007.28
2017-10-10T07:05:56.838Z,1007.29
2017-10-10T07:06:37.508Z,1007.33
2017-10-10T07:07:18.745Z,1007.24
2017-10-10T07:07:59.299Z,1007.26
2017-10-10T07:08:41.722Z,1007.25
2017-10-10T07:10:54.321Z,1007.27
2017-10-10T07:11:35.013Z,1007.24
2017-10-10T07:12:15.647Z,1007.24
2017-10-10T07:12:56.133Z,1007.28
2017-10-10T07:13:36.834Z,1007.29
2017-10-10T07:14:17.558Z,1007.28
2017-10-10T07:14:59.053Z,1007.32
2017-10-10T07:15:39.971Z,1007.37
2017-10-10T07:16:20.655Z,1007.39
2017-10-10T07:17:01.353Z,1007.37
2017-10-10T07:17:41.900Z,1007.4
2017-10-10T07:18:22.614Z,1007.41
2017-10-10T07:19:03.687Z,1007.44
2017-10-10T07:19:44.211Z,1007.44
2017-10-10T07:20:25.055Z,1007.5
2017-10-10T07:21:05.847Z,1007.54
2017-10-10T07:21:46.509Z,1007.51
2017-10-10T07:22:27.246Z,1007.49
2017-10-10T07:23:07.901Z,1007.52
2017-10-10T07:23:48.741Z,1007.56
2017-10-10T07:24:29.393Z,1007.55
2017-10-10T07:25:09.973Z,1007.54
2017-10-10T07:25:50.680Z,1007.55
2017-10-10T07:26:32.958Z,1007.45
2017-10-10T07:27:13.525Z,1007.48
2017-10-10T07:27:54.192Z,1007.44
2017-10-10T07:28:35.251Z,1007.49
2017-10-10T07:29:15.809Z,1007.53
2017-10-10T07:29:56.203Z,1007.52
2017-10-10T07:30:36.660Z,1007.52
2017-10-10T07:31:17.199Z,1007.44
2017-10-10T07:31:57.693Z,1007.59
2017-10-10T07:32:38.193Z,1007.52
2017-10-10T07:33:18.720Z,1007.49
2017-10-10T07:33:59.282Z,1007.47
2017-10-10T07:34:39.800Z,1007.42
2017-10-10T07:35:20.692Z,1007.52
2017-10-10T07:36:01.374Z,1007.48
2017-10-10T07:36:41.912Z,1007.44
2017-10-10T07:37:22.419Z,1007.53
2017-10-10T07:38:02.888Z,1007.53
2017-10-10T07:38:43.545Z,1007.52
2017-10-10T07:39:24.692Z,1007.47
2017-10-10T07:40:05.012Z,1007.54
2017-10-10T07:40:45.554Z,1007.44
2017-10-10T07:41:26.026Z,1007.5
2017-10-10T07:42:06.514Z,1007.49
2017-10-10T07:42:47.496Z,1007.48
2017-10-10T07:43:28.000Z,1007.51
2017-10-10T07:44:10.272Z,1007.48
2017-10-10T07:44:50.686Z,1007.49
2017-10-10T07:45:31.200Z,1007.5
2017-10-10T07:46:11.687Z,1007.52
2017-10-10T07:46:52.255Z,1007.51
2017-10-10T07:47:32.749Z,1007.54
2017-10-10T07:48:13.420Z,1007.56
2017-10-10T07:48:54.038Z,1007.59
2017-10-10T07:49:34.586Z,1007.61
2017-10-10T07:50:15.089Z,1007.61
2017-10-10T07:50:55.582Z,1007.64
2017-10-10T07:51:36.692Z,1007.65
2017-10-10T07:52:17.176Z,1007.7
2017-10-10T07:52:57.708Z,1007.73
2017-10-10T07:53:38.185Z,1007.76
2017-10-10T07:54:18.708Z,1007.8
2017-10-10T07:54:59.242Z,1007.8
2017-10-10T07:55:39.744Z,1007.78
2017-10-10T07:56:20.169Z,1007.8
2017-10-10T07:57:00.700Z,1007.82
2017-10-10T07:57:41.200Z,1007.84
2017-10-10T07:58:21.598Z,1007.82
2017-10-10T07:59:02.138Z,1007.83
2017-10-10T07:59:42.658Z,1007.82
2017-10-10T08:00:23.136Z,1007.83
2017-10-10T08:01:03.687Z,1007.84
2017-10-10T08:01:44.245Z,1007.88
2017-10-10T08:02:24.705Z,1007.8
2017-10-10T08:03:05.197Z,1007.81
2017-10-10T08:03:45.790Z,1007.81
2017-10-10T08:04:26.687Z,1007.83
2017-10-10T08:05:07.252Z,1007.89
2017-10-10T08:05:47.782Z,1007.86
2017-10-10T08:06:28.301Z,1007.87
2017-10-10T08:07:09.660Z,1007.85
2017-10-10T08:07:50.233Z,1007.82
2017-10-10T08:08:30.802Z,1007.84
2017-10-10T08:09:11.442Z,1007.82
2017-10-10T08:09:51.874Z,1007.85
2017-10-10T08:10:32.358Z,1007.88
2017-10-10T08:11:12.943Z,1007.92
2017-10-10T08:11:53.542Z,1007.89
2017-10-10T08:12:34.096Z,1007.93
2017-10-10T08:13:14.670Z,1007.85
2017-10-10T08:13:55.185Z,1007.94
2017-10-10T08:14:35.750Z,1007.89
2017-10-10T08:15:16.285Z,1007.96
2017-10-10T08:15:56.887Z,1007.99
2017-10-10T08:16:37.360Z,1007.94
2017-10-10T08:17:17.822Z,1008.02
2017-10-10T08:17:58.262Z,1008.04
2017-10-10T08:18:38.870Z,1008.1
2017-10-10T08:19:19.329Z,1008.09
2017-10-10T08:19:59.801Z,1008.1
2017-10-10T08:20:40.202Z,1008.14
2017-10-10T08:21:20.676Z,1008.13
2017-10-10T08:22:01.176Z,1008.14
2017-10-10T08:22:41.669Z,1008.12
2017-10-10T08:23:22.248Z,1008.15